Terminal Aerodrome Forecast
Issued by NWS Sioux Falls, SD

Home | Current Version | Previous Version | Text Only | Print | Product List | Glossary Off
Versions: 1 2 3 4 5 6 7 8 9 10 11 12 13 14 15 16 17 18 19 20 21 22 23 24 25 26 27 28 29 30 31 32 33 34 35 36

000
FTUS43 KFSD 222349
TAFSUX
TAF
KSUX 222349Z 2300/2324 15008KT P6SM BKN200
     FM230300 17010KT 3SM BR OVC006
     FM231300 32008KT P6SM BKN080
     FM231700 33017G25KT P6SM BKN080
     FM232000 33020G30KT P6SM SCT035 BKN120=

USA.gov is the U.S. government's official web portal to all federal, state and local government web resources and services.